Time;durP1;ratioP1;P1;durP2;ratioP2;P2;SDS_P1;SDS_P2;PMS_P1;PMS_P2;Temp;Humidity;BMP_temperature;BMP_pressure;BME280_temperature;BME280_humidity;BME280_pressure;Samples;Min_cycle;Max_cycle;Signal;HPM_P1;HPM_P2
2023/09/01 00:00:50;;;;;;;2.17;1.40;;;19.30;69.20;;;;;;5018356;28;20967;-51
2023/09/01 00:03:41;;;;;;;2.67;1.37;;;19.30;69.20;;;;;;4999428;28;20453;-51
2023/09/01 00:06:13;;;;;;;2.93;1.60;;;19.30;69.10;;;;;;4991901;28;20458;-52
2023/09/01 00:08:43;;;;;;;1.43;1.20;;;19.30;69.10;;;;;;5025743;28;20465;-52
2023/09/01 00:11:11;;;;;;;2.17;1.70;;;19.30;69.10;;;;;;4994261;28;20447;-51
2023/09/01 00:13:40;;;;;;;3.70;1.70;;;19.30;69.20;;;;;;4993784;28;20472;-53
2023/09/01 00:16:09;;;;;;;2.47;1.80;;;19.30;69.20;;;;;;5021180;28;20492;-53
2023/09/01 00:18:38;;;;;;;2.93;1.67;;;19.30;69.20;;;;;;5010444;28;20465;-51
2023/09/01 00:21:08;;;;;;;2.30;1.73;;;19.30;69.30;;;;;;4991814;28;20442;-50
2023/09/01 00:23:36;;;;;;;2.20;1.43;;;19.30;69.20;;;;;;4993380;28;20450;-50
2023/09/01 00:26:05;;;;;;;1.60;1.40;;;19.30;69.40;;;;;;4993517;28;20884;-51
2023/09/01 00:28:33;;;;;;;2.47;1.90;;;19.30;69.30;;;;;;4993050;28;20465;-54
2023/09/01 00:31:02;;;;;;;3.30;1.60;;;19.30;69.30;;;;;;5011353;28;20497;-52
2023/09/01 00:33:34;;;;;;;3.03;1.60;;;19.30;69.30;;;;;;4993162;28;20476;-50
2023/09/01 00:36:03;;;;;;;2.27;1.47;;;19.30;69.40;;;;;;4991125;28;20486;-52
2023/09/01 00:38:33;;;;;;;2.90;2.30;;;19.30;69.40;;;;;;4994085;28;20490;-52
2023/09/01 00:41:02;;;;;;;2.27;1.73;;;19.30;69.40;;;;;;5025705;28;20501;-53
2023/09/01 00:43:30;;;;;;;2.43;1.67;;;19.30;69.40;;;;;;5007165;28;20442;-51
2023/09/01 00:46:00;;;;;;;2.20;1.27;;;19.30;69.50;;;;;;4984910;28;20476;-51
2023/09/01 00:48:29;;;;;;;2.83;1.50;;;19.30;69.40;;;;;;4993263;28;20480;-53
2023/09/01 00:50:57;;;;;;;2.80;1.73;;;19.30;69.40;;;;;;4991743;28;20503;-51
2023/09/01 00:53:27;;;;;;;2.30;1.67;;;19.30;69.40;;;;;;4993100;28;20483;-52
2023/09/01 00:55:58;;;;;;;2.80;1.63;;;19.30;69.50;;;;;;4992775;28;20462;-52
2023/09/01 00:58:27;;;;;;;1.70;1.50;;;19.30;69.50;;;;;;5025586;28;20490;-51
2023/09/01 01:00:58;;;;;;;2.10;1.40;;;19.30;69.50;;;;;;5023494;28;20463;-52
2023/09/01 01:03:27;;;;;;;2.10;1.50;;;19.30;69.50;;;;;;4992896;28;20809;-54
2023/09/01 01:06:11;;;;;;;1.83;1.63;;;19.30;69.50;;;;;;5022614;28;21009;-52
2023/09/01 01:08:47;;;;;;;1.50;1.40;;;19.30;69.50;;;;;;5024621;28;20457;-50
2023/09/01 01:11:24;;;;;;;2.40;1.80;;;19.30;69.50;;;;;;4992433;28;21013;-53
2023/09/01 01:13:58;;;;;;;2.93;2.10;;;19.30;69.70;;;;;;5024942;28;20472;-53
2023/09/01 01:16:28;;;;;;;2.70;1.77;;;19.30;69.60;;;;;;4990286;28;20482;-51
2023/09/01 01:19:04;;;;;;;2.70;1.90;;;19.30;69.90;;;;;;5025379;28;20466;-52
2023/09/01 01:21:37;;;;;;;2.20;1.60;;;19.20;69.80;;;;;;4990932;28;21080;-53
2023/09/01 01:24:07;;;;;;;2.23;1.30;;;19.30;69.90;;;;;;5026001;28;20430;-50
2023/09/01 01:26:37;;;;;;;2.90;1.80;;;19.20;69.80;;;;;;5024748;28;20481;-53
2023/09/01 01:29:07;;;;;;;2.27;1.57;;;19.20;69.80;;;;;;4989605;28;20552;-51
2023/09/01 01:31:36;;;;;;;2.13;1.30;;;19.20;69.90;;;;;;5022977;28;20470;-52
2023/09/01 01:34:11;;;;;;;1.87;1.47;;;19.20;69.90;;;;;;4991511;28;20464;-53
2023/09/01 01:36:49;;;;;;;2.10;1.90;;;19.20;70.00;;;;;;4989636;28;20485;-52
2023/09/01 01:39:25;;;;;;;2.17;1.30;;;19.20;69.90;;;;;;4993194;28;20457;-51
2023/09/01 01:42:00;;;;;;;2.67;1.73;;;19.20;70.00;;;;;;5024061;28;20979;-50
2023/09/01 01:44:34;;;;;;;1.97;1.30;;;19.20;70.00;;;;;;4991517;28;20472;-53
2023/09/01 01:47:05;;;;;;;3.10;1.50;;;19.20;71.00;;;;;;5008082;28;20501;-53
2023/09/01 01:49:33;;;;;;;2.47;1.73;;;19.20;69.80;;;;;;4992529;28;20445;-51
2023/09/01 01:52:02;;;;;;;2.77;1.53;;;19.20;70.00;;;;;;5022249;28;20485;-51
2023/09/01 01:54:33;;;;;;;2.93;2.17;;;19.20;70.00;;;;;;4992429;28;20833;-53
2023/09/01 01:57:02;;;;;;;1.87;1.53;;;19.20;70.00;;;;;;5017883;28;20531;-52
2023/09/01 01:59:31;;;;;;;2.53;1.53;;;19.20;70.10;;;;;;4993739;28;20532;-52
2023/09/01 02:01:59;;;;;;;1.90;1.30;;;19.20;70.20;;;;;;5038841;28;20473;-51
2023/09/01 02:04:28;;;;;;;1.53;1.13;;;19.20;70.00;;;;;;5024030;28;20430;-51
2023/09/01 02:06:57;;;;;;;1.77;1.43;;;19.20;70.10;;;;;;5021648;28;20490;-50
2023/09/01 02:09:26;;;;;;;2.17;1.40;;;19.20;70.00;;;;;;5024977;28;20522;-51
2023/09/01 02:11:56;;;;;;;3.03;1.37;;;19.20;70.10;;;;;;5024071;28;20475;-51
2023/09/01 02:14:25;;;;;;;3.30;1.50;;;19.20;70.20;;;;;;4987243;28;20481;-53
2023/09/01 02:16:53;;;;;;;2.63;1.40;;;19.20;70.10;;;;;;5023847;28;20535;-52
2023/09/01 02:19:22;;;;;;;2.20;1.40;;;19.20;70.10;;;;;;4991931;28;20497;-50
2023/09/01 02:21:51;;;;;;;2.17;1.37;;;19.20;70.20;;;;;;5020514;28;20508;-49
2023/09/01 02:24:19;;;;;;;2.10;1.63;;;19.20;70.20;;;;;;4991408;28;20449;-52
2023/09/01 02:26:48;;;;;;;2.87;1.27;;;19.20;70.20;;;;;;4990818;28;20509;-53
2023/09/01 02:29:18;;;;;;;1.50;1.30;;;19.20;71.40;;;;;;4991983;28;20452;-51
2023/09/01 02:31:46;;;;;;;3.97;1.27;;;19.20;70.10;;;;;;5022826;28;20481;-52
2023/09/01 02:34:15;;;;;;;1.93;1.30;;;19.20;70.00;;;;;;5024256;28;20509;-51
2023/09/01 02:36:43;;;;;;;1.50;1.40;;;19.20;70.00;;;;;;4987311;28;20472;-53
2023/09/01 02:39:12;;;;;;;1.90;1.40;;;19.20;70.30;;;;;;4991995;28;20442;-51
2023/09/01 02:41:41;;;;;;;5.07;1.73;;;19.20;70.00;;;;;;5023631;28;20569;-53
2023/09/01 02:44:09;;;;;;;1.67;1.50;;;19.20;70.30;;;;;;4989107;28;20589;-53
2023/09/01 02:46:39;;;;;;;1.60;1.30;;;19.20;70.40;;;;;;4990593;28;20474;-51
2023/09/01 02:49:08;;;;;;;2.23;1.37;;;19.20;70.50;;;;;;4991200;28;20512;-51
2023/09/01 02:51:36;;;;;;;1.40;1.20;;;19.20;70.20;;;;;;4988027;28;20486;-53
2023/09/01 02:54:05;;;;;;;2.23;1.40;;;19.20;70.20;;;;;;4991533;28;20465;-51
2023/09/01 02:56:34;;;;;;;1.60;1.20;;;19.20;70.10;;;;;;5023731;28;20467;-51
2023/09/01 02:59:02;;;;;;;1.30;1.20;;;19.20;70.40;;;;;;5024460;28;20465;-52
2023/09/01 03:01:31;;;;;;;1.30;1.20;;;19.20;70.10;;;;;;4988974;28;20470;-51
2023/09/01 03:04:06;;;;;;;1.70;1.40;;;19.20;70.30;;;;;;5023344;28;20441;-52
2023/09/01 03:06:35;;;;;;;2.07;1.47;;;19.20;70.50;;;;;;5020794;28;20573;-53
2023/09/01 03:09:04;;;;;;;1.53;1.20;;;19.20;70.50;;;;;;5023770;28;20820;-52
2023/09/01 03:11:33;;;;;;;2.27;1.47;;;19.20;70.50;;;;;;5022306;28;20502;-50
2023/09/01 03:14:04;;;;;;;2.70;1.37;;;19.10;70.50;;;;;;5023828;28;20437;-50
2023/09/01 03:16:33;;;;;;;1.90;1.30;;;19.10;70.70;;;;;;5015646;28;20560;-52
2023/09/01 03:19:03;;;;;;;1.40;1.10;;;19.10;70.50;;;;;;5018790;28;20978;-50
2023/09/01 03:21:31;;;;;;;2.50;1.37;;;19.10;70.50;;;;;;5005171;28;20485;-50
2023/09/01 03:24:00;;;;;;;2.53;1.33;;;19.10;70.70;;;;;;5023825;28;20446;-51
2023/09/01 03:26:30;;;;;;;1.40;1.13;;;19.10;70.60;;;;;;4990515;28;21274;-51
2023/09/01 03:28:59;;;;;;;2.20;1.60;;;19.10;70.50;;;;;;5023768;28;20483;-51
2023/09/01 03:31:31;;;;;;;1.40;1.10;;;19.10;70.30;;;;;;5020484;28;20468;-51
2023/09/01 03:34:03;;;;;;;2.10;1.00;;;19.10;70.40;;;;;;5024002;28;20428;-50
2023/09/01 03:36:32;;;;;;;1.70;1.00;;;19.20;70.70;;;;;;5020296;28;20502;-53
2023/09/01 03:39:01;;;;;;;1.57;1.10;;;19.10;70.60;;;;;;5023510;28;20451;-53
2023/09/01 03:41:29;;;;;;;2.53;1.20;;;19.10;70.50;;;;;;5022639;28;20595;-53
2023/09/01 03:43:58;;;;;;;1.40;1.30;;;19.10;70.60;;;;;;5020855;28;20441;-52
2023/09/01 03:46:27;;;;;;;2.53;1.30;;;19.10;70.50;;;;;;4990556;28;20812;-53
2023/09/01 03:48:55;;;;;;;1.37;1.10;;;19.10;70.70;;;;;;5023111;28;20462;-52
2023/09/01 03:51:26;;;;;;;1.67;1.00;;;19.10;70.40;;;;;;4987549;28;20485;-49
2023/09/01 03:53:54;;;;;;;1.60;1.30;;;19.10;70.40;;;;;;5007244;28;20876;-50
2023/09/01 03:56:23;;;;;;;1.73;1.13;;;19.10;70.40;;;;;;4992328;28;20498;-51
2023/09/01 03:58:52;;;;;;;1.40;1.20;;;19.10;70.50;;;;;;5012120;28;20963;-52
2023/09/01 04:01:20;;;;;;;1.67;1.27;;;19.10;70.60;;;;;;5018235;28;20509;-50
2023/09/01 04:03:49;;;;;;;2.17;1.07;;;19.10;70.60;;;;;;4994050;28;20445;-54
2023/09/01 04:06:17;;;;;;;1.47;1.13;;;19.10;70.40;;;;;;5009705;28;20566;-50
2023/09/01 04:08:47;;;;;;;1.30;0.80;;;19.10;70.30;;;;;;4994420;28;20548;-50
2023/09/01 04:11:16;;;;;;;1.40;1.10;;;19.10;70.20;;;;;;4993616;28;21083;-50
2023/09/01 04:13:44;;;;;;;1.70;1.10;;;19.10;70.20;;;;;;4993982;28;20503;-51
2023/09/01 04:16:13;;;;;;;2.13;1.00;;;19.10;70.60;;;;;;4990753;28;20483;-53
2023/09/01 04:18:42;;;;;;;1.73;1.23;;;19.10;70.60;;;;;;4994010;28;20985;-49
2023/09/01 04:21:11;;;;;;;1.63;1.20;;;19.10;70.90;;;;;;4990847;28;20480;-50
2023/09/01 04:23:40;;;;;;;1.90;1.00;;;19.10;70.60;;;;;;4993664;28;20438;-51
2023/09/01 04:26:11;;;;;;;1.40;1.20;;;19.10;70.70;;;;;;4993242;28;20481;-53
2023/09/01 04:28:39;;;;;;;1.23;1.10;;;19.10;70.50;;;;;;4994000;28;20457;-53
2023/09/01 04:31:16;;;;;;;1.47;1.00;;;19.10;70.90;;;;;;4991406;28;20477;-51
2023/09/01 04:33:46;;;;;;;1.90;1.30;;;19.10;70.70;;;;;;4993503;28;20484;-53
2023/09/01 04:36:15;;;;;;;1.30;0.90;;;19.10;71.50;;;;;;4990706;28;20481;-53
2023/09/01 04:38:43;;;;;;;1.43;1.13;;;19.10;71.00;;;;;;5026468;28;20510;-53
2023/09/01 04:41:13;;;;;;;1.87;1.30;;;19.10;70.80;;;;;;4993153;28;20468;-51
2023/09/01 04:43:43;;;;;;;1.97;1.40;;;19.10;71.10;;;;;;4992272;28;20452;-52
2023/09/01 04:46:13;;;;;;;1.50;1.00;;;19.10;70.90;;;;;;4993452;28;20457;-52
2023/09/01 04:48:42;;;;;;;1.43;0.80;;;19.00;71.00;;;;;;5026446;28;20449;-51
2023/09/01 04:51:11;;;;;;;1.83;1.23;;;19.00;71.20;;;;;;4991939;28;20481;-52
2023/09/01 04:53:40;;;;;;;1.60;1.20;;;19.00;70.80;;;;;;4993077;28;20446;-50
2023/09/01 04:56:09;;;;;;;1.60;1.10;;;19.10;71.20;;;;;;5024511;28;20993;-51
2023/09/01 04:58:40;;;;;;;2.20;1.00;;;19.00;71.00;;;;;;4988805;28;20462;-51
2023/09/01 05:01:08;;;;;;;1.23;0.90;;;19.00;70.70;;;;;;4992883;28;20468;-50
2023/09/01 05:03:37;;;;;;;1.67;1.30;;;19.00;70.70;;;;;;4993323;28;20429;-51
2023/09/01 05:06:07;;;;;;;1.60;0.97;;;19.00;70.80;;;;;;5016909;28;20474;-52
2023/09/01 05:08:36;;;;;;;2.73;0.97;;;19.00;70.80;;;;;;4991722;28;20859;-53
2023/09/01 05:11:04;;;;;;;1.27;1.07;;;19.00;71.60;;;;;;5025030;28;20462;-53
2023/09/01 05:13:37;;;;;;;1.80;1.00;;;19.00;71.70;;;;;;4991482;28;20462;-50
2023/09/01 05:16:07;;;;;;;1.83;1.10;;;19.00;71.70;;;;;;5023452;28;20458;-51
2023/09/01 05:18:36;;;;;;;1.53;1.00;;;19.00;71.70;;;;;;5024701;28;20504;-51
2023/09/01 05:21:04;;;;;;;1.27;0.90;;;19.00;71.90;;;;;;4990034;28;20918;-50
2023/09/01 05:23:34;;;;;;;1.40;0.90;;;19.00;72.30;;;;;;4992729;28;20479;-52
2023/09/01 05:26:03;;;;;;;1.53;0.93;;;19.00;72.10;;;;;;5025966;28;20422;-50
2023/09/01 05:28:31;;;;;;;2.17;1.30;;;19.00;71.50;;;;;;4992692;28;20466;-52
2023/09/01 05:31:00;;;;;;;1.60;1.10;;;19.00;72.50;;;;;;5023868;28;20471;-52
2023/09/01 05:33:34;;;;;;;1.60;1.17;;;19.00;72.20;;;;;;5025501;28;20437;-52
2023/09/01 05:36:03;;;;;;;1.53;1.13;;;19.00;71.70;;;;;;5021522;28;20523;-50
2023/09/01 05:38:32;;;;;;;2.70;1.43;;;19.00;71.40;;;;;;4992622;28;20461;-52
2023/09/01 05:41:02;;;;;;;1.30;0.80;;;19.00;71.20;;;;;;5024865;28;20944;-50
2023/09/01 05:43:30;;;;;;;1.23;1.00;;;19.00;71.20;;;;;;4992383;28;20542;-52
2023/09/01 05:46:00;;;;;;;1.37;1.10;;;19.00;71.40;;;;;;5019257;28;20472;-53
2023/09/01 05:48:28;;;;;;;2.03;0.90;;;19.00;71.50;;;;;;4989507;28;21021;-50
2023/09/01 05:50:58;;;;;;;2.00;1.00;;;19.00;71.50;;;;;;5022105;28;20491;-52
2023/09/01 05:53:28;;;;;;;1.70;1.20;;;18.90;71.60;;;;;;5024693;28;20463;-51
2023/09/01 05:55:56;;;;;;;1.83;1.00;;;19.00;72.10;;;;;;5025335;28;20446;-53
2023/09/01 05:58:25;;;;;;;1.30;0.93;;;19.00;72.10;;;;;;4992736;28;20464;-51
2023/09/01 06:00:54;;;;;;;2.27;1.30;;;18.90;72.50;;;;;;5017228;28;21008;-49
2023/09/01 06:03:22;;;;;;;1.63;0.83;;;18.90;72.80;;;;;;5023677;28;20447;-51
2023/09/01 06:05:51;;;;;;;1.70;1.10;;;18.90;73.10;;;;;;5021890;28;20450;-52
2023/09/01 06:08:21;;;;;;;1.40;1.00;;;18.90;73.10;;;;;;4992417;28;20449;-52
2023/09/01 06:11:03;;;;;;;3.10;0.97;;;18.90;73.00;;;;;;5024930;28;20433;-51
2023/09/01 06:13:32;;;;;;;1.73;1.20;;;18.90;73.20;;;;;;4991881;28;20441;-52
2023/09/01 06:16:02;;;;;;;1.93;0.90;;;18.90;73.30;;;;;;5022665;28;20502;-51
2023/09/01 06:18:31;;;;;;;1.83;0.97;;;18.90;72.90;;;;;;4992117;28;20558;-53
2023/09/01 06:21:00;;;;;;;1.23;0.90;;;18.90;73.60;;;;;;5022039;28;20450;-52
2023/09/01 06:23:30;;;;;;;2.30;1.43;;;18.90;73.80;;;;;;4991346;28;20549;-52
2023/09/01 06:25:58;;;;;;;1.30;1.03;;;18.90;73.60;;;;;;5037246;28;20522;-51
2023/09/01 06:28:27;;;;;;;1.63;1.10;;;18.90;73.70;;;;;;5024794;28;20480;-53
2023/09/01 06:30:55;;;;;;;1.53;0.90;;;18.90;73.90;;;;;;5018300;28;21181;-52
2023/09/01 06:33:24;;;;;;;1.73;1.00;;;18.90;73.70;;;;;;4991328;28;20459;-51
2023/09/01 06:35:52;;;;;;;1.33;1.03;;;18.90;74.00;;;;;;4986883;28;20470;-52
2023/09/01 06:38:24;;;;;;;1.80;1.10;;;18.90;74.40;;;;;;4991652;28;20899;-52
2023/09/01 06:40:54;;;;;;;2.63;1.73;;;18.90;74.40;;;;;;4989423;28;20454;-52
2023/09/01 06:43:23;;;;;;;3.33;1.37;;;18.90;74.50;;;;;;5023013;28;20544;-52
2023/09/01 06:45:53;;;;;;;2.43;1.80;;;18.80;74.40;;;;;;5005729;28;20549;-52
2023/09/01 06:48:22;;;;;;;3.70;1.23;;;18.90;73.80;;;;;;5024435;28;20805;-52
2023/09/01 06:50:51;;;;;;;1.60;1.10;;;18.90;73.70;;;;;;4988005;28;21065;-52
2023/09/01 06:53:19;;;;;;;3.27;1.60;;;18.80;74.70;;;;;;5023936;28;20437;-52
2023/09/01 06:55:48;;;;;;;2.60;1.00;;;18.90;74.10;;;;;;4990859;28;20568;-53
2023/09/01 06:58:17;;;;;;;1.53;0.90;;;18.90;74.80;;;;;;5009324;28;20469;-52
2023/09/01 07:00:46;;;;;;;1.40;0.80;;;18.80;74.50;;;;;;4990759;28;20456;-51
2023/09/01 07:03:15;;;;;;;2.90;1.07;;;18.80;73.70;;;;;;4990937;28;20460;-53
2023/09/01 07:05:43;;;;;;;1.67;1.00;;;18.80;73.80;;;;;;5022504;28;20454;-51
2023/09/01 07:08:13;;;;;;;1.50;0.90;;;18.90;73.80;;;;;;5021403;28;20945;-52
2023/09/01 07:10:42;;;;;;;2.60;0.93;;;18.90;75.10;;;;;;4991506;28;20436;-53
2023/09/01 07:13:11;;;;;;;1.40;0.90;;;18.80;74.00;;;;;;4988917;28;20455;-52
2023/09/01 07:15:40;;;;;;;1.63;0.90;;;18.90;74.80;;;;;;4989375;28;20469;-51
2023/09/01 07:18:09;;;;;;;1.73;1.33;;;18.80;74.80;;;;;;5023959;28;20598;-52
2023/09/01 07:20:37;;;;;;;1.53;0.90;;;18.90;76.20;;;;;;4988587;28;20451;-52
2023/09/01 07:23:06;;;;;;;1.57;0.97;;;18.80;76.50;;;;;;4992099;28;20448;-52
2023/09/01 07:25:34;;;;;;;1.73;1.00;;;18.80;76.70;;;;;;4991473;28;20475;-52
2023/09/01 07:28:03;;;;;;;1.73;0.90;;;18.80;76.40;;;;;;5030102;28;20458;-52
2023/09/01 07:30:33;;;;;;;1.40;0.77;;;18.80;76.90;;;;;;4986718;28;20724;-51
2023/09/01 07:33:03;;;;;;;1.40;1.20;;;18.80;77.10;;;;;;5028140;28;20433;-51
2023/09/01 07:35:32;;;;;;;2.00;1.23;;;18.80;75.60;;;;;;4993376;28;20507;-53
2023/09/01 07:38:02;;;;;;;2.80;1.10;;;18.80;75.70;;;;;;4994924;28;20852;-52
2023/09/01 07:40:32;;;;;;;2.37;1.03;;;18.80;77.60;;;;;;5027914;28;20439;-52
2023/09/01 07:43:01;;;;;;;1.47;0.80;;;18.80;76.50;;;;;;5027160;28;21047;-52
2023/09/01 07:45:29;;;;;;;1.20;0.67;;;18.80;76.00;;;;;;5012910;28;20498;-52
2023/09/01 07:47:58;;;;;;;1.87;0.77;;;18.80;75.20;;;;;;5027503;28;20449;-52
2023/09/01 07:50:48;;;;;;;1.83;0.80;;;18.80;75.30;;;;;;5024592;28;20450;-53
2023/09/01 07:53:17;;;;;;;1.57;0.90;;;18.80;76.90;;;;;;4994812;28;20571;-53
2023/09/01 07:55:45;;;;;;;1.00;0.60;;;18.80;75.60;;;;;;5026964;28;20531;-52
2023/09/01 07:58:14;;;;;;;1.80;0.60;;;18.80;74.90;;;;;;5027293;28;20471;-53
2023/09/01 08:00:43;;;;;;;1.53;0.70;;;18.80;77.10;;;;;;4992260;28;20451;-53
2023/09/01 08:03:12;;;;;;;1.20;0.80;;;18.80;78.30;;;;;;4995090;28;20437;-51
2023/09/01 08:05:41;;;;;;;1.40;1.00;;;18.80;77.60;;;;;;4991480;28;20793;-53
2023/09/01 08:08:13;;;;;;;1.70;1.00;;;18.80;78.70;;;;;;5022107;28;20475;-51
2023/09/01 08:10:42;;;;;;;2.47;1.07;;;18.70;78.20;;;;;;4994746;28;20436;-52
2023/09/01 08:13:11;;;;;;;2.40;1.07;;;18.70;78.40;;;;;;5029431;28;20453;-53
2023/09/01 08:15:40;;;;;;;1.13;0.90;;;18.70;78.40;;;;;;4990031;28;20570;-52
2023/09/01 08:18:08;;;;;;;2.00;0.80;;;18.80;78.40;;;;;;5026932;28;20472;-52
2023/09/01 08:20:37;;;;;;;2.20;1.17;;;18.70;78.00;;;;;;4991636;28;20441;-53
2023/09/01 08:23:06;;;;;;;1.90;1.17;;;18.70;78.00;;;;;;5028692;28;20448;-52
2023/09/01 08:25:36;;;;;;;1.57;0.80;;;18.70;78.40;;;;;;4993323;28;21207;-53
2023/09/01 08:28:08;;;;;;;1.37;0.80;;;18.70;77.40;;;;;;5027046;28;20461;-52
2023/09/01 08:30:45;;;;;;;1.73;0.80;;;18.70;79.10;;;;;;4991033;28;20831;-52
2023/09/01 08:33:21;;;;;;;1.47;0.90;;;18.70;78.90;;;;;;5010525;28;20476;-53
2023/09/01 08:36:01;;;;;;;1.63;1.07;;;18.80;79.40;;;;;;4985437;28;20834;-53
2023/09/01 08:38:44;;;;;;;1.80;0.93;;;18.70;78.80;;;;;;4993850;28;21145;-51
2023/09/01 08:41:18;;;;;;;2.20;0.97;;;18.70;80.50;;;;;;5023230;28;21201;-52
2023/09/01 08:44:00;;;;;;;1.77;1.13;;;18.70;79.10;;;;;;4992269;28;20471;-53
2023/09/01 08:46:33;;;;;;;1.50;1.00;;;18.70;81.30;;;;;;4989816;28;20915;-53
2023/09/01 08:49:14;;;;;;;1.37;0.80;;;18.70;79.60;;;;;;5003779;28;20457;-52
2023/09/01 08:51:48;;;;;;;0.97;0.60;;;18.70;80.40;;;;;;4988118;28;20484;-51
2023/09/01 08:54:24;;;;;;;1.63;0.80;;;18.70;81.40;;;;;;4978624;28;21130;-52
2023/09/01 08:57:03;;;;;;;1.57;0.80;;;18.80;80.80;;;;;;5006472;28;20538;-53
2023/09/01 08:59:37;;;;;;;1.20;0.73;;;18.70;82.40;;;;;;5010034;28;20530;-51
2023/09/01 09:02:10;;;;;;;1.67;1.00;;;18.70;79.10;;;;;;5028663;28;20460;-51
2023/09/01 09:04:54;;;;;;;1.87;1.00;;;18.70;80.10;;;;;;4993688;28;20448;-52
2023/09/01 09:07:27;;;;;;;2.03;0.80;;;18.80;79.90;;;;;;5018879;28;20832;-53
2023/09/01 09:10:03;;;;;;;0.93;0.50;;;18.70;79.40;;;;;;4993686;28;20436;-52
2023/09/01 09:12:47;;;;;;;1.43;0.77;;;18.70;78.30;;;;;;5024449;28;20490;-52
2023/09/01 09:15:21;;;;;;;2.10;0.73;;;18.70;80.60;;;;;;5049594;28;20533;-52
2023/09/01 09:18:34;;;;;;;2.10;0.87;;;18.70;81.50;;;;;;5024583;28;20462;-52
2023/09/01 09:21:29;;;;;;;1.30;0.80;;;18.70;82.00;;;;;;5029637;28;20505;-52
2023/09/01 09:24:24;;;;;;;3.10;1.07;;;18.70;81.30;;;;;;5034842;28;20439;-51
2023/09/01 09:27:26;;;;;;;1.30;0.83;;;18.70;81.30;;;;;;5010743;28;20561;-53
2023/09/01 09:30:10;;;;;;;1.10;0.60;;;18.80;82.50;;;;;;5048241;28;20509;-51
2023/09/01 09:32:52;;;;;;;1.30;0.80;;;18.70;79.60;;;;;;5054955;28;20479;-51
2023/09/01 09:35:53;;;;;;;2.33;1.00;;;18.70;79.20;;;;;;5050952;28;21002;-52
2023/09/01 09:38:46;;;;;;;1.57;0.73;;;18.80;81.00;;;;;;5045548;28;20976;-51
2023/09/01 09:41:17;;;;;;;1.80;0.90;;;18.70;80.80;;;;;;5036990;28;20468;-52
2023/09/01 09:43:46;;;;;;;1.30;0.60;;;18.80;81.60;;;;;;5014263;28;20553;-52
2023/09/01 09:46:19;;;;;;;1.73;0.70;;;18.70;80.40;;;;;;5040797;28;20538;-52
2023/09/01 09:48:50;;;;;;;1.50;1.20;;;18.80;80.20;;;;;;5050270;28;20474;-53
2023/09/01 09:51:21;;;;;;;1.10;0.60;;;18.80;78.20;;;;;;5017935;28;20479;-52
2023/09/01 09:53:51;;;;;;;2.07;0.83;;;18.80;78.50;;;;;;5037634;28;20527;-52
2023/09/01 09:56:32;;;;;;;1.23;0.87;;;18.80;76.60;;;;;;5059341;28;20467;-53
2023/09/01 09:59:04;;;;;;;1.23;0.63;;;18.80;76.80;;;;;;5011042;28;20612;-52
2023/09/01 10:01:39;;;;;;;3.17;1.47;;;18.80;77.50;;;;;;5055796;28;20456;-53
2023/09/01 10:04:08;;;;;;;1.93;1.00;;;18.80;79.60;;;;;;5049482;28;20444;-52
2023/09/01 10:06:39;;;;;;;3.63;0.80;;;18.80;80.00;;;;;;5019136;28;20988;-53
2023/09/01 10:09:09;;;;;;;1.50;0.60;;;18.80;78.90;;;;;;5008756;28;20504;-53
2023/09/01 10:11:39;;;;;;;1.10;0.77;;;18.70;76.40;;;;;;5047827;28;21143;-52
2023/09/01 10:14:09;;;;;;;1.57;0.83;;;18.80;76.70;;;;;;5021715;28;20531;-52
2023/09/01 10:16:40;;;;;;;2.40;1.13;;;18.80;75.20;;;;;;5051577;28;20462;-52
2023/09/01 10:19:11;;;;;;;1.67;1.10;;;18.80;76.40;;;;;;5055593;28;20474;-52
2023/09/01 10:21:42;;;;;;;1.53;0.77;;;18.80;78.00;;;;;;5039978;28;20476;-52
2023/09/01 10:24:16;;;;;;;1.50;0.60;;;18.80;78.50;;;;;;5032862;28;20500;-52
2023/09/01 10:26:44;;;;;;;3.03;0.77;;;18.80;75.70;;;;;;5022907;28;20875;-53
2023/09/01 10:29:13;;;;;;;1.40;1.20;;;18.80;77.80;;;;;;5018266;28;20510;-51
2023/09/01 10:31:47;;;;;;;1.37;0.80;;;18.80;80.50;;;;;;5051617;28;20480;-51
2023/09/01 10:34:18;;;;;;;1.80;0.80;;;18.80;77.00;;;;;;5023661;28;20517;-50
2023/09/01 10:37:24;;;;;;;1.50;0.80;;;18.80;76.00;;;;;;5044906;28;20486;-53
2023/09/01 10:39:52;;;;;;;1.37;0.50;;;18.80;76.40;;;;;;5016357;28;20456;-52
2023/09/01 10:42:43;;;;;;;1.40;0.77;;;18.80;77.00;;;;;;5015829;28;20466;-51
2023/09/01 10:45:13;;;;;;;1.50;0.70;;;18.80;75.60;;;;;;5051281;28;20516;-52
2023/09/01 10:47:51;;;;;;;2.50;0.80;;;18.80;77.30;;;;;;5014098;28;20460;-53
2023/09/01 10:50:20;;;;;;;1.70;0.80;;;18.80;77.20;;;;;;5043880;28;20471;-52
2023/09/01 10:53:21;;;;;;;1.60;0.80;;;18.80;75.80;;;;;;5043188;28;20452;-50
2023/09/01 10:56:09;;;;;;;0.90;0.50;;;18.80;75.10;;;;;;5008477;28;20545;-51
2023/09/01 10:58:49;;;;;;;1.87;1.00;;;18.80;75.00;;;;;;5036259;28;20506;-54
2023/09/01 11:01:35;;;;;;;1.13;0.60;;;18.80;75.90;;;;;;5046268;28;20477;-54
2023/09/01 11:04:31;;;;;;;1.20;0.90;;;18.80;74.70;;;;;;5044030;28;20437;-53
2023/09/01 11:07:13;;;;;;;1.17;0.70;;;18.80;75.70;;;;;;5039580;28;20484;-51
2023/09/01 11:09:52;;;;;;;1.00;0.60;;;18.80;75.70;;;;;;5022910;28;20431;-50
2023/09/01 11:12:29;;;;;;;1.57;0.70;;;18.80;75.40;;;;;;5054588;28;20463;-53
2023/09/01 11:14:59;;;;;;;1.00;0.70;;;18.80;75.60;;;;;;5048169;28;21019;-52
2023/09/01 11:17:43;;;;;;;1.10;0.70;;;18.80;77.80;;;;;;5015642;28;21042;-50
2023/09/01 11:20:19;;;;;;;1.80;0.80;;;18.80;75.20;;;;;;5040830;28;20468;-53
2023/09/01 11:22:48;;;;;;;1.20;0.73;;;18.80;77.30;;;;;;5046433;28;20522;-51
2023/09/01 11:25:18;;;;;;;2.17;1.57;;;18.80;76.80;;;;;;5025509;28;20450;-53
2023/09/01 11:27:48;;;;;;;1.83;0.90;;;18.80;76.50;;;;;;5009513;28;20459;-52
2023/09/01 11:30:18;;;;;;;1.40;0.93;;;18.80;77.20;;;;;;5043321;28;20541;-51
2023/09/01 11:32:48;;;;;;;1.43;0.80;;;18.80;77.10;;;;;;5042872;28;20537;-51
2023/09/01 11:35:26;;;;;;;1.20;0.60;;;18.80;77.20;;;;;;5050736;28;20973;-52
2023/09/01 11:37:55;;;;;;;1.23;0.70;;;18.80;77.10;;;;;;5051823;28;20499;-53
2023/09/01 11:40:25;;;;;;;3.40;0.83;;;18.80;78.50;;;;;;5028194;28;20537;-51
2023/09/01 11:42:55;;;;;;;1.33;1.03;;;18.80;78.20;;;;;;5054034;28;20997;-53
2023/09/01 11:45:23;;;;;;;1.43;0.70;;;18.80;76.90;;;;;;5021491;28;20458;-51
2023/09/01 11:47:53;;;;;;;2.30;1.00;;;18.80;77.50;;;;;;5053253;28;21099;-52
2023/09/01 11:50:22;;;;;;;1.37;0.77;;;18.80;77.50;;;;;;5038528;28;20520;-52
2023/09/01 11:52:52;;;;;;;1.30;0.90;;;18.70;77.20;;;;;;5034034;28;20450;-51
2023/09/01 11:55:36;;;;;;;1.40;0.97;;;18.80;76.90;;;;;;5044705;28;20442;-52
2023/09/01 11:58:05;;;;;;;1.83;0.70;;;18.80;75.80;;;;;;5018025;28;20526;-52
2023/09/01 12:00:38;;;;;;;1.23;0.63;;;18.70;75.30;;;;;;5017651;28;20464;-53
2023/09/01 12:03:07;;;;;;;1.33;0.70;;;18.80;76.20;;;;;;5014123;28;20843;-50
2023/09/01 12:05:37;;;;;;;1.13;0.57;;;18.80;75.60;;;;;;5018728;28;20825;-51
2023/09/01 12:08:08;;;;;;;1.13;0.50;;;18.80;76.50;;;;;;5057090;28;20461;-51
2023/09/01 12:10:37;;;;;;;1.63;0.90;;;18.80;75.90;;;;;;5036764;28;20471;-52
2023/09/01 12:13:08;;;;;;;1.33;0.80;;;18.80;77.00;;;;;;5053885;28;20443;-50
2023/09/01 12:15:57;;;;;;;1.90;0.73;;;18.80;76.30;;;;;;5010573;28;20511;-51
2023/09/01 12:18:34;;;;;;;1.07;0.53;;;18.80;76.00;;;;;;5050077;28;20487;-50
2023/09/01 12:21:05;;;;;;;1.47;0.60;;;18.80;75.90;;;;;;5020229;28;20889;-52
2023/09/01 12:23:36;;;;;;;1.10;0.70;;;18.80;75.20;;;;;;5053671;28;20447;-53
2023/09/01 12:26:05;;;;;;;1.30;0.60;;;18.80;75.20;;;;;;5041403;28;20651;-53
2023/09/01 12:28:35;;;;;;;1.10;0.70;;;18.80;75.50;;;;;;5024739;28;20489;-50
2023/09/01 12:31:05;;;;;;;1.20;0.63;;;18.80;75.20;;;;;;5040355;28;20444;-53
2023/09/01 12:33:34;;;;;;;2.17;0.80;;;18.80;74.90;;;;;;5010255;28;20425;-52
2023/09/01 12:36:04;;;;;;;1.47;0.67;;;18.80;74.70;;;;;;5020535;28;20496;-50
2023/09/01 12:38:34;;;;;;;1.20;0.80;;;18.80;74.70;;;;;;5052201;28;20486;-51
2023/09/01 12:41:03;;;;;;;1.17;0.60;;;18.80;74.70;;;;;;5021911;28;20564;-50
2023/09/01 12:43:32;;;;;;;1.40;1.00;;;18.80;75.00;;;;;;5018837;28;21101;-53
2023/09/01 12:46:00;;;;;;;1.40;0.70;;;18.80;76.70;;;;;;5059717;28;20433;-51
2023/09/01 12:48:29;;;;;;;1.20;0.60;;;18.80;75.30;;;;;;5016150;28;20547;-51
2023/09/01 12:50:57;;;;;;;1.43;0.83;;;18.80;75.90;;;;;;5011599;28;20507;-51
2023/09/01 12:53:26;;;;;;;1.00;0.50;;;18.80;75.70;;;;;;5023835;28;20951;-53
2023/09/01 12:55:58;;;;;;;1.63;0.80;;;18.80;75.40;;;;;;5050747;28;20471;-52
2023/09/01 12:58:28;;;;;;;1.30;0.70;;;18.80;75.00;;;;;;5026266;28;21044;-53
2023/09/01 13:01:02;;;;;;;0.90;0.50;;;18.80;75.10;;;;;;5016607;28;20473;-50
2023/09/01 13:03:30;;;;;;;0.97;0.60;;;18.80;76.30;;;;;;5051979;28;21043;-53
2023/09/01 13:05:59;;;;;;;0.93;0.57;;;18.80;75.70;;;;;;5047263;28;20445;-51
2023/09/01 13:08:27;;;;;;;0.90;0.50;;;18.80;75.70;;;;;;5020181;28;20454;-51
2023/09/01 13:10:58;;;;;;;1.07;0.63;;;18.80;75.60;;;;;;5049216;28;20475;-52